Time;durP1;ratioP1;P1;durP2;ratioP2;P2;SDS_P1;SDS_P2;PMS_P1;PMS_P2;Temp;Humidity;BMP_temperature;BMP_pressure;BME280_temperature;BME280_humidity;BME280_pressure;Samples;Min_cycle;Max_cycle;Signal;HPM_P1;HPM_P2
2021/08/02 00:00:53;;;;;;;0.10;0.10;;;;;;;19.07;54.22;101389.47;5062369;28;20112;-96
2021/08/02 00:03:29;;;;;;;0.00;0.00;;;;;;;19.09;54.07;101392.13;5071994;28;20052;-96
2021/08/02 00:05:58;;;;;;;0.10;0.10;;;;;;;19.02;54.01;101390.66;5070728;28;20032;-96
2021/08/02 00:08:28;;;;;;;0.10;0.10;;;;;;;19.05;53.82;101386.00;5070502;28;20430;-95
2021/08/02 00:11:06;;;;;;;0.25;0.25;;;;;;;19.02;53.88;101391.50;5067603;28;20021;-95
2021/08/02 00:13:47;;;;;;;16.65;1.17;;;;;;;19.02;53.97;101393.34;5070662;28;20044;-91
2021/08/02 00:16:32;;;;;;;0.10;0.10;;;;;;;19.12;53.70;101391.09;5069607;28;20087;-93
2021/08/02 00:19:01;;;;;;;0.10;0.10;;;;;;;19.07;54.00;101394.84;5070329;28;20353;-94
2021/08/02 00:21:40;;;;;;;0.10;0.10;;;;;;;19.12;54.70;101391.97;5073614;28;20029;-95
2021/08/02 00:24:16;;;;;;;0.10;0.10;;;;;;;19.12;53.97;101393.78;5068893;28;20021;-96
2021/08/02 00:26:43;;;;;;;0.10;0.10;;;;;;;19.05;54.14;101396.75;5078726;28;20043;-94
2021/08/02 00:29:10;;;;;;;0.10;0.10;;;;;;;19.06;54.31;101398.47;5073388;28;20127;-96
2021/08/02 00:31:37;;;;;;;0.10;0.10;;;;;;;19.07;54.58;101397.53;5075449;28;20037;-95
2021/08/02 00:34:04;;;;;;;0.10;0.10;;;;;;;19.09;54.30;101402.84;5070918;28;20075;-95
2021/08/02 00:36:39;;;;;;;0.00;0.00;;;;;;;19.06;55.11;101398.47;5079029;28;20372;-95
2021/08/02 00:43:05;;;;;;;0.10;0.10;;;;;;;19.17;55.17;101397.13;5046651;27;20406;-95
2021/08/02 00:48:28;;;;;;;0.10;0.10;;;;;;;19.07;55.21;101394.84;5018494;28;20433;-96
2021/08/02 00:51:02;;;;;;;0.25;0.25;;;;;;;19.06;55.23;101400.31;5020572;28;20054;-96
2021/08/02 00:53:34;;;;;;;0.10;0.10;;;;;;;19.04;55.75;101389.63;5023069;28;20028;-96
2021/08/02 00:56:09;;;;;;;0.10;0.10;;;;;;;19.06;55.14;101393.09;5017775;28;20081;-96
2021/08/02 00:58:40;;;;;;;0.10;0.10;;;;;;;19.02;55.46;101391.50;4995064;28;20098;-96
2021/08/02 01:01:10;;;;;;;0.10;0.10;;;;;;;19.01;55.18;101397.81;5000661;28;20074;-95
2021/08/02 01:03:40;;;;;;;0.10;0.10;;;;;;;19.00;55.25;101390.69;4992907;28;20023;-96
2021/08/02 01:06:15;;;;;;;0.10;0.10;;;;;;;19.01;55.34;101395.13;4993688;28;20030;-96
2021/08/02 01:08:47;;;;;;;0.10;0.10;;;;;;;19.01;55.67;101394.28;4993759;28;20026;-96
2021/08/02 01:11:19;;;;;;;0.10;0.10;;;;;;;19.00;55.68;101403.28;4994004;28;20030;-95
2021/08/02 01:13:46;;;;;;;0.10;0.10;;;;;;;19.01;55.75;101391.59;4992683;28;20478;-93
2021/08/02 01:16:13;;;;;;;0.10;0.10;;;;;;;18.99;55.70;101402.41;4994134;28;20470;-94
2021/08/02 01:18:48;;;;;;;0.10;0.10;;;;;;;19.03;55.33;101393.25;4991586;28;20022;-96
2021/08/02 01:21:20;;;;;;;0.10;0.10;;;;;;;19.04;55.51;101397.69;4992634;28;20042;-95
2021/08/02 01:23:49;;;;;;;0.10;0.10;;;;;;;19.05;55.45;101401.25;4994568;28;20030;-94
2021/08/02 01:30:14;;;;;;;0.10;0.10;;;;;;;19.12;55.31;101396.47;5094760;27;20386;-91
2021/08/02 01:32:46;;;;;;;0.10;0.10;;;;;;;19.04;55.68;101388.75;5087825;28;20384;-96
2021/08/02 01:35:39;;;;;;;0.10;0.10;;;;;;;19.06;55.52;101398.47;5093702;28;20348;-92
2021/08/02 01:38:09;;;;;;;0.10;0.10;;;;;;;19.05;55.80;101398.56;5075784;28;20065;-95
2021/08/02 01:40:35;;;;;;;0.55;0.55;;;;;;;18.96;55.73;101394.47;5089804;28;20029;-96
2021/08/02 01:43:09;;;;;;;0.10;0.10;;;;;;;18.96;55.69;101394.47;5081939;28;20510;-96
2021/08/02 01:45:52;;;;;;;0.10;0.10;;;;;;;18.98;55.74;101391.72;5081006;28;20039;-91
2021/08/02 01:48:34;;;;;;;0.10;0.10;;;;;;;18.97;55.63;101398.91;5092853;28;20035;-95
2021/08/02 01:51:15;;;;;;;0.10;0.10;;;;;;;18.95;55.85;101397.25;5083765;28;20025;-96
2021/08/02 01:54:09;;;;;;;0.10;0.10;;;;;;;18.94;55.91;101404.44;5090897;28;20012;-96
2021/08/02 02:05:55;;;;;;;0.10;0.10;;;;;;;18.95;55.96;101390.06;5014603;23;20074;-96
2021/08/02 02:09:14;;;;;;;0.10;0.10;;;;;;;18.98;55.72;101394.41;4964611;28;20036;-96
2021/08/02 02:14:36;;;;;;;;;;;;;;;;;;;;;
2021/08/02 02:17:19;;;;;;;0.10;0.10;;;;;;;18.88;55.69;101388.59;4986314;28;20067;-96
2021/08/02 02:20:02;;;;;;;0.10;0.10;;;;;;;18.83;55.79;101393.28;4987027;28;20031;-96
2021/08/02 02:25:26;;;;;;;0.75;0.75;;;;;;;18.75;56.17;101402.56;4978742;23;20034;-95
2021/08/02 02:28:40;;;;;;;0.00;0.00;;;;;;;18.72;56.08;101405.38;4972936;28;20035;-96
2021/08/02 02:33:44;;;;;;;0.10;0.10;;;;;;;18.59;56.47;101398.81;4976118;28;20043;-96
2021/08/02 02:36:14;;;;;;;0.10;0.10;;;;;;;18.53;56.78;101401.78;4975444;28;20074;-96
2021/08/02 02:38:51;;;;;;;0.10;0.10;;;;;;;18.53;57.02;101399.97;4980301;28;20042;-96
2021/08/02 02:41:50;;;;;;;0.10;0.10;;;;;;;18.59;57.15;101396.13;4971601;28;20054;-96
2021/08/02 02:44:49;;;;;;;0.17;0.17;;;;;;;18.59;56.77;101401.50;4981039;28;20039;-96
2021/08/02 02:47:25;;;;;;;0.10;0.10;;;;;;;18.52;56.73;101402.72;5004044;23;20066;-85
2021/08/02 02:50:02;;;;;;;0.10;0.10;;;;;;;18.51;57.15;101406.34;4980638;28;20027;-85
2021/08/02 02:52:29;;;;;;;0.10;0.10;;;;;;;18.46;57.02;101408.38;4986237;28;20034;-85
2021/08/02 02:54:57;;;;;;;0.10;0.10;;;;;;;18.41;57.54;101412.09;4974913;28;20105;-85
2021/08/02 02:57:23;;;;;;;0.10;0.10;;;;;;;18.36;57.20;101410.59;4975046;28;20069;-85
2021/08/02 02:59:50;;;;;;;0.10;0.10;;;;;;;18.26;57.59;101407.44;4959122;28;20082;-85
2021/08/02 03:02:19;;;;;;;0.05;0.05;;;;;;;18.19;57.69;101403.25;4966322;28;20031;-85
2021/08/02 03:04:48;;;;;;;0.10;0.10;;;;;;;18.13;57.92;101415.13;4954862;28;20023;-85
2021/08/02 03:07:16;;;;;;;0.10;0.10;;;;;;;18.08;57.92;101415.31;4962658;28;20039;-85
2021/08/02 03:09:46;;;;;;;0.10;0.10;;;;;;;18.04;57.86;101408.31;4953754;28;20027;-85
2021/08/02 03:12:13;;;;;;;0.10;0.10;;;;;;;17.97;57.82;101412.22;4943441;28;20071;-85
2021/08/02 03:14:40;;;;;;;0.10;0.10;;;;;;;17.91;58.25;101409.78;4954122;29;20038;-85
2021/08/02 03:17:09;;;;;;;0.10;0.10;;;;;;;17.87;58.37;101411.69;4943521;29;20426;-86
2021/08/02 03:19:37;;;;;;;0.10;0.10;;;;;;;17.78;58.46;101409.38;4947901;28;20031;-85
2021/08/02 03:22:28;;;;;;;0.10;0.10;;;;;;;17.77;58.67;101413.88;4951130;28;20359;-84
2021/08/02 03:25:09;;;;;;;0.10;0.10;;;;;;;17.72;58.55;101421.25;4942055;29;20035;-85
2021/08/02 03:27:43;;;;;;;0.20;0.20;;;;;;;17.68;58.52;101413.38;4948317;28;20456;-85
2021/08/02 03:30:13;;;;;;;0.10;0.10;;;;;;;17.61;58.71;101421.69;4952073;29;20035;-85
2021/08/02 03:32:44;;;;;;;0.10;0.10;;;;;;;17.58;58.89;101424.50;4941280;28;20032;-85
2021/08/02 03:35:19;;;;;;;0.10;0.10;;;;;;;17.55;59.14;101421.06;4950898;29;20050;-85
2021/08/02 03:37:46;;;;;;;0.10;0.10;;;;;;;17.51;58.95;101424.78;4948422;29;20562;-85
2021/08/02 03:40:16;;;;;;;0.10;0.10;;;;;;;17.49;59.09;101423.97;4942767;28;20070;-86
2021/08/02 03:42:44;;;;;;;0.10;0.10;;;;;;;17.44;58.94;101424.16;4953525;28;20478;-85
2021/08/02 03:45:13;;;;;;;0.10;0.10;;;;;;;17.39;59.05;101427.00;4943865;29;20107;-84
2021/08/02 03:47:42;;;;;;;0.10;0.10;;;;;;;17.36;59.37;101426.25;4946877;28;20028;-85
2021/08/02 03:50:09;;;;;;;0.10;0.10;;;;;;;17.27;59.15;101433.75;4937379;29;20031;-85
2021/08/02 03:52:36;;;;;;;0.10;0.10;;;;;;;17.23;60.31;101425.88;4953426;29;20090;-84
2021/08/02 03:55:05;;;;;;;0.10;0.10;;;;;;;17.20;60.38;101436.72;4942491;29;20028;-85
2021/08/02 03:57:32;;;;;;;0.10;0.10;;;;;;;17.17;60.33;101436.81;4955159;28;20178;-85
2021/08/02 03:59:59;;;;;;;0.10;0.10;;;;;;;17.12;60.32;101436.97;4944307;28;20031;-85
2021/08/02 04:02:25;;;;;;;0.10;0.10;;;;;;;17.08;59.89;101446.06;4953134;29;20035;-86
2021/08/02 04:04:52;;;;;;;0.10;0.10;;;;;;;17.03;60.42;101443.56;4940693;29;20023;-86
2021/08/02 04:07:18;;;;;;;0.10;0.10;;;;;;;17.02;60.67;101449.84;4949225;28;20036;-85
2021/08/02 04:09:44;;;;;;;0.10;0.10;;;;;;;17.00;61.23;101456.19;4947437;29;20032;-86
2021/08/02 04:12:10;;;;;;;0.08;0.08;;;;;;;17.01;60.58;101456.16;4942247;29;20495;-86
2021/08/02 04:14:37;;;;;;;0.10;0.10;;;;;;;17.02;60.34;101454.34;4953085;29;20031;-87
2021/08/02 04:17:32;;;;;;;0.10;0.10;;;;;;;17.10;60.58;101452.25;5018346;23;20087;-96
2021/08/02 04:20:44;;;;;;;0.10;0.10;;;;;;;17.10;60.82;101453.13;4972996;28;20035;-96
2021/08/02 04:23:23;;;;;;;;;;;;;;;;;;;;;
2021/08/02 04:26:15;;;;;;;0.10;0.10;;;;;;;16.98;60.76;101454.47;5005707;23;20111;-96
2021/08/02 04:39:28;;;;;;;0.10;0.10;;;;;;;17.07;60.86;101463.94;5437746;23;20048;-96
2021/08/02 05:29:33;;;;;;;0.10;0.10;;;;;;;17.27;61.81;101486.41;5099207;23;20053;-95
2021/08/02 05:32:39;;;;;;;;;;;;;;;;;;;;;
2021/08/02 05:41:41;;;;;;;0.10;0.10;;;;;;;17.62;60.63;101484.19;5478458;23;20025;-96
2021/08/02 05:47:46;;;;;;;0.10;0.10;;;;;;;17.72;60.28;101482.00;4892368;29;20043;-96
2021/08/02 05:56:25;;;;;;;0.10;0.10;;;;;;;18.10;60.19;101488.50;5018735;23;20051;-94
2021/08/02 05:58:51;;;;;;;0.03;0.03;;;;;;;18.27;59.88;101484.28;4955175;28;20034;-91
2021/08/02 06:01:26;;;;;;;0.35;0.35;;;;;;;18.32;59.45;101487.63;4951189;28;20023;-92
2021/08/02 06:03:53;;;;;;;0.88;0.68;;;;;;;18.29;59.01;101486.88;4953289;29;20129;-92
2021/08/02 06:06:19;;;;;;;0.10;0.10;;;;;;;18.48;58.90;101495.03;4948839;29;20077;-89
2021/08/02 06:08:45;;;;;;;0.10;0.10;;;;;;;18.52;58.63;101488.59;4950098;29;20035;-94
2021/08/02 06:11:11;;;;;;;0.10;0.10;;;;;;;18.54;58.37;101497.44;4951655;28;20482;-90
2021/08/02 06:13:38;;;;;;;0.10;0.10;;;;;;;18.53;57.86;101484.94;4946970;28;20035;-88
2021/08/02 06:16:04;;;;;;;0.10;0.10;;;;;;;18.52;57.95;101493.97;4946335;28;20032;-88
2021/08/02 06:18:30;;;;;;;0.10;0.10;;;;;;;18.58;57.78;101493.72;4939886;29;20040;-87
2021/08/02 06:20:57;;;;;;;0.10;0.10;;;;;;;18.68;57.64;101489.66;4940282;28;20602;-90
2021/08/02 06:23:23;;;;;;;0.10;0.10;;;;;;;18.70;57.54;101487.78;4936074;29;20487;-93
2021/08/02 06:25:49;;;;;;;0.10;0.10;;;;;;;18.80;57.35;101492.75;4935844;28;20495;-89
2021/08/02 06:28:16;;;;;;;0.10;0.10;;;;;;;18.79;57.46;101485.63;4936306;28;20108;-92
2021/08/02 06:30:42;;;;;;;0.50;0.50;;;;;;;18.82;57.13;101496.25;4935902;28;20122;-90
2021/08/02 06:33:08;;;;;;;0.10;0.10;;;;;;;18.85;56.46;101493.41;4935878;29;20036;-90
2021/08/02 06:35:36;;;;;;;0.10;0.10;;;;;;;18.83;55.50;101492.59;4935779;29;20067;-90
2021/08/02 06:38:05;;;;;;;0.10;0.10;;;;;;;18.99;56.57;101492.81;4935544;28;20134;-90
2021/08/02 06:40:32;;;;;;;0.20;0.20;;;;;;;18.98;55.20;101496.44;4935848;29;20032;-90
2021/08/02 06:42:58;;;;;;;0.10;0.10;;;;;;;18.91;55.48;101494.03;4936298;29;20430;-92
2021/08/02 06:45:24;;;;;;;0.47;0.47;;;;;;;18.81;54.08;101505.25;4938079;28;20098;-89
2021/08/02 06:47:53;;;;;;;0.10;0.10;;;;;;;19.03;54.87;101506.06;4939083;28;20036;-89
2021/08/02 06:50:20;;;;;;;0.10;0.10;;;;;;;19.12;54.46;101503.91;4945596;28;20018;-89
2021/08/02 06:52:46;;;;;;;0.10;0.10;;;;;;;19.00;53.48;101503.50;4949359;29;20118;-88
2021/08/02 06:55:21;;;;;;;0.08;0.08;;;;;;;19.16;54.76;101497.44;4947847;28;20032;-91
2021/08/02 06:57:47;;;;;;;0.10;0.10;;;;;;;19.12;54.46;101503.91;4946539;28;20070;-91
2021/08/02 07:00:14;;;;;;;0.13;0.13;;;;;;;19.26;53.96;101503.28;4948830;29;20115;-91
2021/08/02 07:02:43;;;;;;;0.10;0.10;;;;;;;19.15;53.01;101512.69;4949970;29;20523;-93
2021/08/02 07:05:09;;;;;;;0.10;0.10;;;;;;;19.36;53.92;101505.44;4955151;29;20070;-91
2021/08/02 07:07:36;;;;;;;0.10;0.10;;;;;;;19.50;53.65;101514.69;4950702;29;20024;-91
2021/08/02 07:10:04;;;;;;;1.35;0.82;;;;;;;19.48;53.45;101508.53;4945913;29;20046;-91
2021/08/02 07:12:30;;;;;;;0.10;0.10;;;;;;;19.61;53.27;101506.13;4948925;29;20031;-92
2021/08/02 07:14:56;;;;;;;0.10;0.10;;;;;;;19.72;52.78;101501.94;4947046;29;20484;-92
2021/08/02 07:17:22;;;;;;;0.10;0.10;;;;;;;19.69;52.36;101506.63;4950221;28;20388;-89
2021/08/02 07:19:49;;;;;;;0.10;0.10;;;;;;;19.79;52.51;101509.72;4947459;28;20031;-90
2021/08/02 07:22:16;;;;;;;0.52;0.52;;;;;;;19.86;51.91;101506.72;4947997;29;20475;-91
2021/08/02 07:24:42;;;;;;;0.65;0.63;;;;;;;19.98;51.85;101501.69;4946734;29;20031;-90
2021/08/02 07:27:08;;;;;;;0.10;0.10;;;;;;;20.09;51.43;101502.03;4946664;28;20034;-90
2021/08/02 07:29:35;;;;;;;0.10;0.10;;;;;;;20.31;51.32;101509.91;4947722;29;20035;-90
2021/08/02 07:32:01;;;;;;;0.10;0.10;;;;;;;20.51;51.61;101508.88;4946061;29;20106;-91
2021/08/02 07:34:29;;;;;;;0.20;0.20;;;;;;;20.60;51.18;101507.53;4946523;29;20031;-91
2021/08/02 07:36:59;;;;;;;0.05;0.05;;;;;;;20.75;51.39;101515.78;4948239;29;20027;-91
2021/08/02 07:39:25;;;;;;;0.10;0.10;;;;;;;20.74;51.46;101514.91;4948618;28;20454;-89
2021/08/02 07:41:51;;;;;;;0.10;0.10;;;;;;;20.77;51.93;101516.56;4942411;29;20040;-90
2021/08/02 07:44:17;;;;;;;0.10;0.10;;;;;;;20.69;50.90;101512.44;4953374;28;20031;-90
2021/08/02 07:46:46;;;;;;;0.10;0.10;;;;;;;20.59;51.50;101521.94;4945602;29;20028;-90
2021/08/02 07:49:13;;;;;;;0.10;0.10;;;;;;;20.59;51.27;101521.09;4947498;28;20123;-91
2021/08/02 07:51:39;;;;;;;0.10;0.10;;;;;;;20.67;51.26;101521.53;4949572;28;20471;-90
2021/08/02 07:54:05;;;;;;;0.43;0.43;;;;;;;20.61;51.44;101525.44;4947431;29;20078;-91
2021/08/02 07:56:33;;;;;;;0.10;0.10;;;;;;;20.68;50.77;101520.59;4945262;28;20424;-91
2021/08/02 07:58:59;;;;;;;0.43;0.43;;;;;;;20.72;51.22;101521.34;4945154;28;20039;-90
2021/08/02 08:01:26;;;;;;;0.10;0.10;;;;;;;20.74;50.91;101524.84;4944676;29;20020;-90
2021/08/02 08:03:52;;;;;;;0.10;0.10;;;;;;;20.80;50.98;101521.81;4944208;29;20027;-90
2021/08/02 08:06:18;;;;;;;0.10;0.10;;;;;;;20.80;49.94;101521.81;4945797;29;20123;-90
2021/08/02 08:08:44;;;;;;;0.10;0.10;;;;;;;20.93;50.81;101520.19;4950793;28;20058;-91
2021/08/02 08:11:11;;;;;;;0.10;0.10;;;;;;;21.00;51.33;101524.31;4952617;29;20031;-90
2021/08/02 08:13:38;;;;;;;0.10;0.10;;;;;;;21.05;50.71;101523.19;4955507;28;20042;-90
2021/08/02 08:16:06;;;;;;;0.10;0.10;;;;;;;21.10;50.67;101529.22;4957165;28;20023;-90
2021/08/02 08:18:32;;;;;;;0.10;0.10;;;;;;;21.17;50.83;101530.63;4957229;28;20028;-90
2021/08/02 08:20:59;;;;;;;0.00;0.00;;;;;;;21.06;49.87;101527.63;4956762;28;20031;-90
2021/08/02 08:23:26;;;;;;;0.10;0.10;;;;;;;21.07;50.01;101529.38;4957062;28;20118;-90
2021/08/02 08:25:52;;;;;;;0.10;0.10;;;;;;;20.89;50.45;101532.09;4956428;28;20039;-91
2021/08/02 08:28:19;;;;;;;0.10;0.10;;;;;;;20.62;50.80;101532.56;4956323;28;20023;-91
2021/08/02 08:30:45;;;;;;;0.10;0.10;;;;;;;20.34;51.21;101530.41;4956994;28;20043;-91
2021/08/02 08:33:11;;;;;;;0.25;0.25;;;;;;;20.08;50.95;101542.47;4956749;29;20046;-91
2021/08/02 08:35:37;;;;;;;1.45;0.77;;;;;;;20.12;51.60;101547.59;4956526;28;20038;-91
2021/08/02 08:38:05;;;;;;;0.15;0.15;;;;;;;20.12;51.51;101544.03;4956169;28;20039;-92
2021/08/02 08:40:33;;;;;;;0.10;0.10;;;;;;;20.08;51.65;101551.38;4956097;28;20078;-91
2021/08/02 08:43:00;;;;;;;0.10;0.10;;;;;;;20.12;51.78;101541.34;4956226;28;20051;-91
2021/08/02 08:45:26;;;;;;;0.10;0.10;;;;;;;20.06;51.07;101549.72;4956469;28;20475;-92
2021/08/02 08:47:53;;;;;;;0.10;0.10;;;;;;;20.08;51.53;101545.16;4956813;28;20032;-91
2021/08/02 08:50:19;;;;;;;0.10;0.10;;;;;;;20.16;51.77;101551.91;4956608;28;20118;-91
2021/08/02 08:52:46;;;;;;;0.10;0.10;;;;;;;20.12;50.94;101549.44;4956220;28;20030;-91
2021/08/02 08:55:14;;;;;;;0.40;0.40;;;;;;;20.15;51.13;101551.94;4955898;28;20035;-91
2021/08/02 08:57:42;;;;;;;0.10;0.10;;;;;;;20.25;51.19;101547.00;4956143;28;20090;-91
2021/08/02 09:00:25;;;;;;;0.10;0.10;;;;;;;20.34;50.43;101549.25;4956672;28;20118;-90
2021/08/02 09:02:53;;;;;;;0.10;0.10;;;;;;;20.37;50.01;101549.06;4956028;28;20059;-91
2021/08/02 09:05:20;;;;;;;0.05;0.05;;;;;;;20.44;49.86;101550.50;4956287;28;20042;-91
2021/08/02 09:07:53;;;;;;;0.10;0.10;;;;;;;20.53;49.29;101546.47;4955573;28;20073;-90
2021/08/02 09:10:19;;;;;;;;;;;;;;;20.79;49.51;101550.56;4956354;28;20024;-91
2021/08/02 09:12:52;;;;;;;0.10;0.10;;;;;;;20.82;49.32;101553.09;4955965;28;19957;-91
2021/08/02 09:15:29;;;;;;;0.10;0.10;;;;;;;20.87;49.14;101547.47;4955788;29;20027;-90
2021/08/02 09:17:56;;;;;;;0.10;0.10;;;;;;;21.01;47.55;101555.69;4955635;28;20083;-91
2021/08/02 09:20:24;;;;;;;0.10;0.10;;;;;;;21.18;48.24;101551.22;4955484;29;20065;-91
2021/08/02 09:22:52;;;;;;;0.10;0.10;;;;;;;21.40;47.91;101555.47;4951762;28;20089;-90
2021/08/02 09:25:26;;;;;;;0.10;0.10;;;;;;;;;;4944018;29;20446;-92
2021/08/02 09:27:53;;;;;;;0.10;0.10;;;;;;;21.74;46.88;101542.84;4954786;28;20031;-93
2021/08/02 09:30:22;;;;;;;0.10;0.10;;;;;;;21.98;46.50;101552.25;4955400;28;20035;-94
2021/08/02 09:33:05;;;;;;;0.10;0.10;;;;;;;22.24;46.73;101547.19;4954657;28;20036;-92
2021/08/02 09:38:14;;;;;;;0.55;0.55;;;;;;;22.54;46.82;101551.78;5071531;27;20415;-85
2021/08/02 10:59:10;;;;;;;0.10;0.10;;;;;;;23.86;41.56;101549.09;5103654;23;20074;-93
2021/08/02 11:03:03;;;;;;;0.10;0.10;;;;;;;23.60;40.50;101554.34;4976115;28;20050;-93
2021/08/02 11:05:04;;;;;;;0.10;0.10;;;;;;;23.34;41.55;101554.16;4950643;28;20045;-90
2021/08/02 11:07:32;;;;;;;0.13;0.13;;;;;;;23.26;41.59;101549.25;4997483;23;20043;-84
2021/08/02 11:36:20;;;;;;;0.10;0.10;;;;;;;23.85;38.85;101561.75;5489300;23;20399;-90
2021/08/02 11:38:48;;;;;;;0.10;0.10;;;;;;;24.05;40.13;101567.72;4956570;29;20110;-90
2021/08/02 11:41:30;;;;;;;0.10;0.10;;;;;;;24.36;40.03;101566.56;4956592;28;20019;-90
2021/08/02 11:43:58;;;;;;;0.10;0.10;;;;;;;24.42;38.65;101567.97;4953860;29;20082;-91
2021/08/02 11:46:28;;;;;;;0.10;0.10;;;;;;;24.48;38.52;101556.72;4955820;28;20427;-91
2021/08/02 11:49:06;;;;;;;0.10;0.10;;;;;;;24.68;38.32;101565.38;4963159;28;20031;-96
2021/08/02 11:51:34;;;;;;;0.10;0.10;;;;;;;24.54;36.65;101550.03;4979377;28;20043;-95
2021/08/02 11:54:01;;;;;;;0.40;0.30;;;;;;;24.68;39.11;101555.41;4968623;28;20046;-96
2021/08/02 11:56:40;;;;;;;0.10;0.10;;;;;;;24.87;38.30;101563.16;4960422;28;20031;-93
2021/08/02 11:59:16;;;;;;;1.08;0.55;;;;;;;24.87;38.22;101557.72;4972492;28;20027;-95
2021/08/02 12:01:46;;;;;;;0.10;0.10;;;;;;;24.79;38.15;101556.53;4960657;28;20024;-96
2021/08/02 12:04:12;;;;;;;0.47;0.47;;;;;;;24.81;38.45;101558.16;4958438;28;20043;-94
2021/08/02 12:09:47;;;;;;;0.10;0.10;;;;;;;24.55;39.43;101563.47;5114761;27;20152;-96
2021/08/02 12:12:22;;;;;;;0.20;0.20;;;;;;;24.23;39.32;101569.22;5048104;28;1360321;-90
2021/08/02 12:14:48;;;;;;;0.10;0.10;;;;;;;23.97;38.32;101570.06;5089930;28;20467;-90
2021/08/02 12:17:14;;;;;;;0.30;0.30;;;;;;;23.70;38.98;101581.66;5071426;28;20060;-90
2021/08/02 12:19:50;;;;;;;0.10;0.10;;;;;;;23.58;39.80;101581.50;5058504;28;20052;-88
2021/08/02 12:22:18;;;;;;;0.10;0.10;;;;;;;23.36;41.16;101576.56;5058806;28;20029;-90
2021/08/02 12:24:56;;;;;;;0.10;0.10;;;;;;;23.34;40.02;101572.22;5058185;28;20018;-90
2021/08/02 12:27:25;;;;;;;0.17;0.17;;;;;;;23.30;40.12;101579.63;5058247;28;20354;-88
2021/08/02 12:30:03;;;;;;;0.10;0.10;;;;;;;23.27;40.57;101578.00;5059717;28;20021;-89
2021/08/02 12:32:45;;;;;;;0.10;0.10;;;;;;;23.35;40.34;101582.94;5056757;28;20116;-89
2021/08/02 12:35:14;;;;;;;0.10;0.10;;;;;;;23.18;40.54;101580.41;5066560;28;20029;-90
2021/08/02 12:37:41;;;;;;;0.10;0.10;;;;;;;23.01;39.98;101584.13;5059923;28;20049;-90
2021/08/02 12:40:12;;;;;;;0.10;0.10;;;;;;;23.09;40.09;101581.81;5050286;28;20033;-89
2021/08/02 12:42:40;;;;;;;0.10;0.10;;;;;;;23.09;40.03;101577.28;5050087;28;20083;-89
2021/08/02 12:45:09;;;;;;;0.10;0.10;;;;;;;23.14;40.12;101566.19;5049993;28;20033;-89
2021/08/02 12:47:35;;;;;;;0.80;0.80;;;;;;;23.33;39.80;101576.75;5049501;28;20029;-89
2021/08/02 12:50:03;;;;;;;0.10;0.10;;;;;;;23.47;39.65;101570.47;5049392;28;20021;-90
2021/08/02 12:52:31;;;;;;;0.17;0.17;;;;;;;23.70;40.32;101571.72;5049725;28;20037;-91
2021/08/02 12:54:59;;;;;;;0.10;0.10;;;;;;;23.88;39.01;101574.22;5049785;28;20091;-89
2021/08/02 12:57:28;;;;;;;0.10;0.10;;;;;;;23.97;38.66;101565.53;5049487;28;20037;-89
2021/08/02 12:59:57;;;;;;;0.10;0.10;;;;;;;24.10;38.25;101573.72;5049869;28;20029;-89
2021/08/02 13:05:08;;;;;;;0.57;0.57;;;;;;;23.97;36.76;101572.78;5089486;28;20806;-94
2021/08/02 13:07:34;;;;;;;0.40;0.40;;;;;;;24.10;37.42;101568.31;5058156;28;20034;-94
2021/08/02 13:10:01;;;;;;;0.20;0.20;;;;;;;24.18;37.14;101575.91;5050645;28;20091;-88
2021/08/02 13:12:27;;;;;;;0.10;0.10;;;;;;;24.34;36.78;101564.94;5051507;28;20021;-86
2021/08/02 13:15:53;;;;;;;0.10;0.10;;;;;;;24.81;36.21;101557.28;5053206;28;20030;-96
2021/08/02 13:30:25;;;;;;;0.10;0.10;;;;;;;24.68;37.46;101557.25;5294573;23;20124;-93
2021/08/02 13:32:51;;;;;;;0.10;0.10;;;;;;;24.64;37.19;101561.13;5010882;28;20056;-91
2021/08/02 14:06:23;;;;;;;0.10;0.10;;;;;;;24.77;36.20;101542.19;5100686;23;20078;-90
2021/08/02 14:19:38;;;;;;;0.20;0.20;;;;;;;25.19;34.69;101551.88;5205107;23;20046;-88
2021/08/02 14:22:05;;;;;;;0.10;0.10;;;;;;;25.15;35.11;101549.50;4994022;28;20070;-88
2021/08/02 14:24:32;;;;;;;0.10;0.10;;;;;;;25.06;35.53;101550.13;4995348;28;20058;-85
2021/08/02 14:30:43;;;;;;;0.10;0.10;;;;;;;24.75;35.94;101558.59;5010608;23;20054;-94
2021/08/02 14:32:38;;;;;;;0.20;0.20;;;;;;;24.33;35.00;101565.91;4945318;29;20043;-91
2021/08/02 14:35:05;;;;;;;0.10;0.10;;;;;;;24.71;35.92;101549.78;4973406;28;20090;-91
2021/08/02 14:37:34;;;;;;;0.10;0.10;;;;;;;25.06;35.31;101547.44;4972652;28;20046;-92
2021/08/02 14:40:04;;;;;;;0.20;0.20;;;;;;;25.45;34.41;101551.88;4973371;28;20034;-90
2021/08/02 14:42:32;;;;;;;0.10;0.10;;;;;;;25.52;33.68;101552.31;4976179;28;20074;-90
2021/08/02 14:45:02;;;;;;;2.30;0.95;;;;;;;25.73;33.96;101547.16;4975796;28;20042;-90
2021/08/02 14:48:00;;;;;;;0.10;0.10;;;;;;;25.90;33.16;101550.50;4975637;28;20039;-91
2021/08/02 14:50:26;;;;;;;0.10;0.10;;;;;;;26.05;33.45;101554.78;4974371;28;20499;-86
2021/08/02 14:52:53;;;;;;;0.10;0.10;;;;;;;26.12;32.76;101550.66;4976212;28;20038;-91
2021/08/02 14:55:26;;;;;;;0.28;0.28;;;;;;;26.22;32.84;101552.69;4975811;28;20181;-95
2021/08/02 14:57:53;;;;;;;0.10;0.10;;;;;;;26.27;32.76;101559.50;5067715;23;20042;-94
2021/08/02 15:00:20;;;;;;;0.10;0.10;;;;;;;26.20;31.89;101554.66;4986000;28;20053;-96
2021/08/02 15:02:47;;;;;;;0.20;0.20;;;;;;;25.89;32.17;101549.63;4986637;28;20031;-92
2021/08/02 15:05:14;;;;;;;0.20;0.20;;;;;;;25.77;32.98;101555.94;4982799;28;20023;-91
2021/08/02 15:07:45;;;;;;;0.10;0.10;;;;;;;26.07;32.52;101546.53;4977366;28;20466;-96
2021/08/02 15:10:17;;;;;;;0.10;0.10;;;;;;;26.25;32.44;101545.16;4977134;28;20504;-95
2021/08/02 15:12:45;;;;;;;0.10;0.10;;;;;;;26.09;31.31;101545.44;4983186;28;20066;-95
2021/08/02 15:15:14;;;;;;;0.10;0.10;;;;;;;25.80;32.04;101545.72;4975936;28;20031;-95
2021/08/02 15:17:46;;;;;;;0.10;0.10;;;;;;;25.60;32.94;101544.50;4977840;28;20023;-94
2021/08/02 15:20:28;;;;;;;0.08;0.08;;;;;;;25.28;32.99;101539.50;4978420;28;20114;-95
2021/08/02 15:23:02;;;;;;;0.30;0.30;;;;;;;25.01;34.56;101537.78;4960638;28;20032;-96
2021/08/02 15:25:34;;;;;;;0.10;0.10;;;;;;;25.09;36.00;101545.38;4976836;28;20030;-95
2021/08/02 15:28:13;;;;;;;0.32;0.32;;;;;;;25.48;34.41;101529.97;4974765;28;20093;-94
2021/08/02 15:31:01;;;;;;;0.00;0.00;;;;;;;25.89;33.56;101527.91;4976250;28;20027;-94
2021/08/02 15:35:44;;;;;;;;;;;;;;;;;;;;;
2021/08/02 15:37:23;;;;;;;0.10;0.10;;;;;;;26.55;32.25;101527.50;4967911;28;20035;-96
2021/08/02 15:40:21;;;;;;;;;;;;;;;26.68;32.99;101524.72;4948741;28;20074;-95
2021/08/02 15:43:01;;;;;;;0.20;0.20;;;;;;;26.70;32.14;101527.31;4972692;28;19957;-94
2021/08/02 15:45:31;;;;;;;0.10;0.10;;;;;;;26.68;31.45;101532.00;4980551;28;20039;-96
2021/08/02 15:47:58;;;;;;;0.08;0.08;;;;;;;26.75;31.01;101530.56;4976703;28;20039;-96
2021/08/02 15:50:28;;;;;;;0.10;0.10;;;;;;;26.48;31.21;101523.50;4977164;28;20062;-92
2021/08/02 16:01:54;;;;;;;0.10;0.10;;;;;;;26.99;31.35;101527.75;4441716;27;17898291;-93
2021/08/02 16:04:45;;;;;;;0.10;0.10;;;;;;;27.22;31.36;101538.69;5084792;28;20120;-94
2021/08/02 16:07:16;;;;;;;0.10;0.10;;;;;;;27.32;31.40;101534.22;5078698;28;20029;-93
2021/08/02 16:10:22;;;;;;;0.10;0.10;;;;;;;27.37;30.88;101526.56;5050277;28;20041;-95
2021/08/02 16:12:51;;;;;;;0.10;0.10;;;;;;;27.39;30.25;101535.47;4980665;28;20038;-93
2021/08/02 16:15:21;;;;;;;0.15;0.15;;;;;;;27.55;30.60;101535.13;5053303;28;20102;-92
2021/08/02 16:18:19;;;;;;;;;;;;;;;;;;;;;
2021/08/02 16:21:07;;;;;;;0.10;0.10;;;;;;;27.54;30.77;101530.66;5023606;28;20029;-91
2021/08/02 16:23:37;;;;;;;0.10;0.10;;;;;;;27.59;30.18;101530.25;5067993;28;20387;-93
2021/08/02 16:26:18;;;;;;;0.00;0.00;;;;;;;27.80;30.25;101529.50;5071500;28;20025;-90
2021/08/02 16:28:47;;;;;;;0.15;0.15;;;;;;;27.50;30.98;101539.19;5067469;28;20044;-91
2021/08/02 16:31:14;;;;;;;0.10;0.10;;;;;;;27.05;31.48;101526.41;5059052;28;20047;-91
2021/08/02 16:34:40;;;;;;;;;;;;;;;;;;;;;
2021/08/02 16:37:40;;;;;;;;;;;;;;;26.63;31.16;101535.06;5015018;28;20151;-91
2021/08/02 16:40:10;;;;;;;0.10;0.10;;;;;;;26.61;31.51;101531.59;4980877;28;19957;-91